sensor_id;sensor_type;location;lat;lon;timestamp;P1;durP1;ratioP1;P2;durP2;ratioP2
61009;SDS011;46897;55.340;86.082;2022-07-30T00:01:41;12.98;;;8.55;;
61009;SDS011;46897;55.340;86.082;2022-07-30T00:04:10;17.20;;;9.82;;
61009;SDS011;46897;55.340;86.082;2022-07-30T00:06:39;16.27;;;9.20;;
61009;SDS011;46897;55.340;86.082;2022-07-30T00:09:08;16.00;;;9.23;;
61009;SDS011;46897;55.340;86.082;2022-07-30T00:11:39;17.50;;;10.05;;
61009;SDS011;46897;55.340;86.082;2022-07-30T00:14:09;16.55;;;8.50;;
61009;SDS011;46897;55.340;86.082;2022-07-30T00:16:38;17.60;;;9.88;;
61009;SDS011;46897;55.340;86.082;2022-07-30T00:19:08;18.98;;;9.50;;
61009;SDS011;46897;55.340;86.082;2022-07-30T00:21:38;17.85;;;9.20;;
61009;SDS011;46897;55.340;86.082;2022-07-30T00:24:12;17.67;;;10.00;;
61009;SDS011;46897;55.340;86.082;2022-07-30T00:26:42;17.58;;;9.63;;
61009;SDS011;46897;55.340;86.082;2022-07-30T00:29:11;17.35;;;9.00;;
61009;SDS011;46897;55.340;86.082;2022-07-30T00:31:41;15.85;;;9.07;;
61009;SDS011;46897;55.340;86.082;2022-07-30T00:34:11;17.05;;;9.98;;
61009;SDS011;46897;55.340;86.082;2022-07-30T00:36:41;17.73;;;9.63;;
61009;SDS011;46897;55.340;86.082;2022-07-30T00:39:11;20.38;;;10.73;;
61009;SDS011;46897;55.340;86.082;2022-07-30T00:41:53;16.40;;;9.48;;
61009;SDS011;46897;55.340;86.082;2022-07-30T00:44:24;20.63;;;11.98;;
61009;SDS011;46897;55.340;86.082;2022-07-30T00:46:53;15.45;;;9.45;;
61009;SDS011;46897;55.340;86.082;2022-07-30T00:49:23;17.88;;;9.50;;
61009;SDS011;46897;55.340;86.082;2022-07-30T00:51:53;13.75;;;8.60;;
61009;SDS011;46897;55.340;86.082;2022-07-30T00:54:24;20.95;;;11.43;;
61009;SDS011;46897;55.340;86.082;2022-07-30T00:56:53;19.27;;;10.55;;
61009;SDS011;46897;55.340;86.082;2022-07-30T00:59:22;19.70;;;10.90;;
61009;SDS011;46897;55.340;86.082;2022-07-30T01:01:53;16.42;;;10.07;;
61009;SDS011;46897;55.340;86.082;2022-07-30T01:04:23;18.00;;;10.20;;
61009;SDS011;46897;55.340;86.082;2022-07-30T01:06:52;17.35;;;10.55;;
61009;SDS011;46897;55.340;86.082;2022-07-30T01:09:21;14.77;;;9.10;;
61009;SDS011;46897;55.340;86.082;2022-07-30T01:11:52;18.15;;;10.18;;
61009;SDS011;46897;55.340;86.082;2022-07-30T01:14:22;18.95;;;9.93;;
61009;SDS011;46897;55.340;86.082;2022-07-30T01:16:52;18.65;;;9.60;;
61009;SDS011;46897;55.340;86.082;2022-07-30T01:19:22;14.02;;;9.10;;
61009;SDS011;46897;55.340;86.082;2022-07-30T01:22:14;19.58;;;10.25;;
61009;SDS011;46897;55.340;86.082;2022-07-30T01:24:54;16.35;;;9.75;;
61009;SDS011;46897;55.340;86.082;2022-07-30T01:27:30;19.40;;;10.93;;
61009;SDS011;46897;55.340;86.082;2022-07-30T01:30:03;20.50;;;10.13;;
61009;SDS011;46897;55.340;86.082;2022-07-30T01:32:35;16.00;;;9.70;;
61009;SDS011;46897;55.340;86.082;2022-07-30T01:35:09;17.20;;;10.48;;
61009;SDS011;46897;55.340;86.082;2022-07-30T01:37:41;14.18;;;9.32;;
61009;SDS011;46897;55.340;86.082;2022-07-30T01:40:14;17.52;;;9.43;;
61009;SDS011;46897;55.340;86.082;2022-07-30T01:42:45;17.85;;;9.82;;
61009;SDS011;46897;55.340;86.082;2022-07-30T01:45:17;25.63;;;10.90;;
61009;SDS011;46897;55.340;86.082;2022-07-30T01:47:47;23.25;;;10.38;;
61009;SDS011;46897;55.340;86.082;2022-07-30T01:50:17;19.23;;;9.85;;
61009;SDS011;46897;55.340;86.082;2022-07-30T01:52:49;22.73;;;10.50;;
61009;SDS011;46897;55.340;86.082;2022-07-30T01:55:21;19.58;;;10.65;;
61009;SDS011;46897;55.340;86.082;2022-07-30T01:57:54;18.00;;;10.02;;
61009;SDS011;46897;55.340;86.082;2022-07-30T02:00:26;19.52;;;10.80;;
61009;SDS011;46897;55.340;86.082;2022-07-30T02:02:59;18.13;;;10.88;;
61009;SDS011;46897;55.340;86.082;2022-07-30T02:05:29;18.17;;;10.23;;
61009;SDS011;46897;55.340;86.082;2022-07-30T02:08:02;22.73;;;10.88;;
61009;SDS011;46897;55.340;86.082;2022-07-30T02:10:35;20.17;;;9.95;;
61009;SDS011;46897;55.340;86.082;2022-07-30T02:13:11;26.13;;;10.43;;
61009;SDS011;46897;55.340;86.082;2022-07-30T02:15:47;23.15;;;11.10;;
61009;SDS011;46897;55.340;86.082;2022-07-30T02:18:20;23.10;;;10.02;;
61009;SDS011;46897;55.340;86.082;2022-07-30T02:23:34;14.38;;;8.50;;
61009;SDS011;46897;55.340;86.082;2022-07-30T02:26:06;21.70;;;10.30;;
61009;SDS011;46897;55.340;86.082;2022-07-30T02:28:38;19.60;;;9.77;;
61009;SDS011;46897;55.340;86.082;2022-07-30T02:31:11;24.25;;;11.50;;
61009;SDS011;46897;55.340;86.082;2022-07-30T02:33:45;26.55;;;10.55;;
61009;SDS011;46897;55.340;86.082;2022-07-30T02:36:18;25.40;;;10.18;;
61009;SDS011;46897;55.340;86.082;2022-07-30T02:38:48;21.52;;;10.23;;
61009;SDS011;46897;55.340;86.082;2022-07-30T02:41:19;19.48;;;10.02;;
61009;SDS011;46897;55.340;86.082;2022-07-30T02:43:52;19.10;;;11.23;;
61009;SDS011;46897;55.340;86.082;2022-07-30T02:46:24;20.08;;;10.23;;
61009;SDS011;46897;55.340;86.082;2022-07-30T02:48:54;22.13;;;10.35;;
61009;SDS011;46897;55.340;86.082;2022-07-30T02:51:27;21.77;;;10.65;;
61009;SDS011;46897;55.340;86.082;2022-07-30T02:53:57;21.83;;;10.70;;
61009;SDS011;46897;55.340;86.082;2022-07-30T02:56:32;21.02;;;10.30;;
61009;SDS011;46897;55.340;86.082;2022-07-30T02:59:04;17.08;;;9.52;;
61009;SDS011;46897;55.340;86.082;2022-07-30T03:01:35;20.65;;;11.25;;
61009;SDS011;46897;55.340;86.082;2022-07-30T03:04:05;27.00;;;10.98;;
61009;SDS011;46897;55.340;86.082;2022-07-30T03:06:36;37.28;;;12.63;;
61009;SDS011;46897;55.340;86.082;2022-07-30T03:09:06;28.08;;;11.50;;
61009;SDS011;46897;55.340;86.082;2022-07-30T03:11:42;21.27;;;10.55;;
61009;SDS011;46897;55.340;86.082;2022-07-30T03:14:13;24.50;;;10.38;;
61009;SDS011;46897;55.340;86.082;2022-07-30T03:16:43;20.92;;;9.57;;
61009;SDS011;46897;55.340;86.082;2022-07-30T03:19:21;18.10;;;10.30;;
61009;SDS011;46897;55.340;86.082;2022-07-30T03:21:52;20.05;;;9.88;;
61009;SDS011;46897;55.340;86.082;2022-07-30T03:24:24;22.77;;;10.25;;
61009;SDS011;46897;55.340;86.082;2022-07-30T03:26:57;14.93;;;9.98;;
61009;SDS011;46897;55.340;86.082;2022-07-30T03:29:31;16.15;;;9.95;;
61009;SDS011;46897;55.340;86.082;2022-07-30T03:32:02;16.00;;;9.77;;
61009;SDS011;46897;55.340;86.082;2022-07-30T03:34:33;18.15;;;11.48;;
61009;SDS011;46897;55.340;86.082;2022-07-30T03:37:04;15.98;;;10.15;;
61009;SDS011;46897;55.340;86.082;2022-07-30T03:39:34;15.25;;;9.65;;
61009;SDS011;46897;55.340;86.082;2022-07-30T03:42:05;15.25;;;10.05;;
61009;SDS011;46897;55.340;86.082;2022-07-30T03:44:37;14.63;;;9.68;;
61009;SDS011;46897;55.340;86.082;2022-07-30T03:47:07;15.60;;;9.70;;
61009;SDS011;46897;55.340;86.082;2022-07-30T03:49:37;14.80;;;8.90;;
61009;SDS011;46897;55.340;86.082;2022-07-30T03:52:06;14.07;;;9.27;;
61009;SDS011;46897;55.340;86.082;2022-07-30T03:54:37;14.60;;;9.85;;
61009;SDS011;46897;55.340;86.082;2022-07-30T03:57:06;14.77;;;10.13;;
61009;SDS011;46897;55.340;86.082;2022-07-30T03:59:44;18.75;;;10.38;;
61009;SDS011;46897;55.340;86.082;2022-07-30T04:02:13;14.52;;;9.63;;
61009;SDS011;46897;55.340;86.082;2022-07-30T04:04:43;18.42;;;10.20;;
61009;SDS011;46897;55.340;86.082;2022-07-30T04:07:12;14.65;;;9.52;;
61009;SDS011;46897;55.340;86.082;2022-07-30T04:09:42;14.70;;;9.55;;
61009;SDS011;46897;55.340;86.082;2022-07-30T04:12:11;14.15;;;10.32;;
61009;SDS011;46897;55.340;86.082;2022-07-30T04:14:41;17.35;;;9.73;;
61009;SDS011;46897;55.340;86.082;2022-07-30T04:17:14;14.15;;;9.55;;
61009;SDS011;46897;55.340;86.082;2022-07-30T04:19:50;12.75;;;9.20;;
61009;SDS011;46897;55.340;86.082;2022-07-30T04:22:22;13.02;;;9.65;;
61009;SDS011;46897;55.340;86.082;2022-07-30T04:24:55;11.38;;;8.85;;
61009;SDS011;46897;55.340;86.082;2022-07-30T04:27:26;15.60;;;9.93;;
61009;SDS011;46897;55.340;86.082;2022-07-30T04:29:58;15.07;;;9.73;;
61009;SDS011;46897;55.340;86.082;2022-07-30T04:32:27;13.57;;;9.15;;
61009;SDS011;46897;55.340;86.082;2022-07-30T04:34:57;20.83;;;9.18;;
61009;SDS011;46897;55.340;86.082;2022-07-30T04:37:28;16.30;;;9.35;;
61009;SDS011;46897;55.340;86.082;2022-07-30T04:39:58;11.73;;;9.27;;
61009;SDS011;46897;55.340;86.082;2022-07-30T04:42:28;13.52;;;8.43;;
61009;SDS011;46897;55.340;86.082;2022-07-30T04:44:59;11.80;;;8.20;;
61009;SDS011;46897;55.340;86.082;2022-07-30T04:47:28;12.48;;;8.45;;
61009;SDS011;46897;55.340;86.082;2022-07-30T04:49:59;9.98;;;7.13;;
61009;SDS011;46897;55.340;86.082;2022-07-30T04:52:29;10.82;;;7.20;;
61009;SDS011;46897;55.340;86.082;2022-07-30T04:55:01;10.32;;;7.20;;
61009;SDS011;46897;55.340;86.082;2022-07-30T04:57:33;10.63;;;8.02;;
61009;SDS011;46897;55.340;86.082;2022-07-30T05:00:07;13.40;;;7.97;;
61009;SDS011;46897;55.340;86.082;2022-07-30T05:02:37;10.63;;;7.63;;
61009;SDS011;46897;55.340;86.082;2022-07-30T05:05:09;10.50;;;7.10;;
61009;SDS011;46897;55.340;86.082;2022-07-30T05:07:39;8.73;;;7.20;;
61009;SDS011;46897;55.340;86.082;2022-07-30T05:10:09;20.65;;;7.60;;
61009;SDS011;46897;55.340;86.082;2022-07-30T05:12:39;11.73;;;7.25;;
61009;SDS011;46897;55.340;86.082;2022-07-30T05:15:11;9.18;;;7.22;;
61009;SDS011;46897;55.340;86.082;2022-07-30T05:17:41;9.57;;;6.60;;
61009;SDS011;46897;55.340;86.082;2022-07-30T05:20:11;10.05;;;7.70;;
61009;SDS011;46897;55.340;86.082;2022-07-30T05:22:41;12.00;;;8.02;;
61009;SDS011;46897;55.340;86.082;2022-07-30T05:27:45;9.90;;;7.32;;
61009;SDS011;46897;55.340;86.082;2022-07-30T05:30:16;8.07;;;6.72;;
61009;SDS011;46897;55.340;86.082;2022-07-30T05:32:52;10.57;;;6.90;;
61009;SDS011;46897;55.340;86.082;2022-07-30T05:35:22;8.35;;;6.80;;
61009;SDS011;46897;55.340;86.082;2022-07-30T05:37:51;10.07;;;7.50;;
61009;SDS011;46897;55.340;86.082;2022-07-30T05:40:20;9.00;;;6.97;;
61009;SDS011;46897;55.340;86.082;2022-07-30T05:42:50;8.57;;;6.47;;
61009;SDS011;46897;55.340;86.082;2022-07-30T05:45:21;8.13;;;6.72;;
61009;SDS011;46897;55.340;86.082;2022-07-30T05:47:51;8.75;;;7.28;;
61009;SDS011;46897;55.340;86.082;2022-07-30T05:50:20;8.52;;;6.20;;
61009;SDS011;46897;55.340;86.082;2022-07-30T05:52:49;9.38;;;6.68;;
61009;SDS011;46897;55.340;86.082;2022-07-30T05:55:18;8.35;;;6.63;;
61009;SDS011;46897;55.340;86.082;2022-07-30T05:57:49;9.27;;;6.78;;
61009;SDS011;46897;55.340;86.082;2022-07-30T06:00:18;10.43;;;6.88;;
61009;SDS011;46897;55.340;86.082;2022-07-30T06:02:49;9.93;;;7.25;;
61009;SDS011;46897;55.340;86.082;2022-07-30T06:05:18;8.90;;;7.13;;
61009;SDS011;46897;55.340;86.082;2022-07-30T06:07:47;9.60;;;7.30;;
61009;SDS011;46897;55.340;86.082;2022-07-30T06:10:17;9.57;;;7.07;;
61009;SDS011;46897;55.340;86.082;2022-07-30T06:12:46;9.90;;;7.22;;
61009;SDS011;46897;55.340;86.082;2022-07-30T06:15:16;11.40;;;6.75;;
61009;SDS011;46897;55.340;86.082;2022-07-30T06:17:53;8.95;;;6.93;;
61009;SDS011;46897;55.340;86.082;2022-07-30T06:20:28;9.05;;;7.30;;
61009;SDS011;46897;55.340;86.082;2022-07-30T06:22:57;7.85;;;6.90;;
61009;SDS011;46897;55.340;86.082;2022-07-30T06:25:26;9.18;;;7.20;;
61009;SDS011;46897;55.340;86.082;2022-07-30T06:27:55;7.95;;;6.93;;
61009;SDS011;46897;55.340;86.082;2022-07-30T06:30:46;9.40;;;6.55;;
61009;SDS011;46897;55.340;86.082;2022-07-30T06:33:17;8.95;;;6.95;;
61009;SDS011;46897;55.340;86.082;2022-07-30T06:35:46;10.25;;;6.72;;
61009;SDS011;46897;55.340;86.082;2022-07-30T06:38:16;8.80;;;7.30;;
61009;SDS011;46897;55.340;86.082;2022-07-30T06:40:45;7.90;;;7.05;;
61009;SDS011;46897;55.340;86.082;2022-07-30T06:43:14;8.55;;;6.72;;
61009;SDS011;46897;55.340;86.082;2022-07-30T06:45:45;8.45;;;6.57;;
61009;SDS011;46897;55.340;86.082;2022-07-30T06:48:14;7.90;;;6.60;;
61009;SDS011;46897;55.340;86.082;2022-07-30T06:50:45;9.43;;;7.47;;
61009;SDS011;46897;55.340;86.082;2022-07-30T06:53:14;9.30;;;6.95;;
61009;SDS011;46897;55.340;86.082;2022-07-30T06:55:44;8.43;;;6.25;;
61009;SDS011;46897;55.340;86.082;2022-07-30T06:58:13;10.75;;;7.05;;
61009;SDS011;46897;55.340;86.082;2022-07-30T07:00:51;9.57;;;7.00;;
61009;SDS011;46897;55.340;86.082;2022-07-30T07:03:20;9.30;;;6.57;;
61009;SDS011;46897;55.340;86.082;2022-07-30T07:05:51;9.18;;;6.80;;
61009;SDS011;46897;55.340;86.082;2022-07-30T07:08:20;10.40;;;7.03;;
61009;SDS011;46897;55.340;86.082;2022-07-30T07:10:50;9.63;;;6.55;;
61009;SDS011;46897;55.340;86.082;2022-07-30T07:13:20;8.60;;;6.53;;
61009;SDS011;46897;55.340;86.082;2022-07-30T07:15:49;11.35;;;7.40;;
61009;SDS011;46897;55.340;86.082;2022-07-30T07:18:18;12.63;;;7.40;;
61009;SDS011;46897;55.340;86.082;2022-07-30T07:20:48;10.55;;;7.32;;
61009;SDS011;46897;55.340;86.082;2022-07-30T07:23:19;8.30;;;6.60;;
61009;SDS011;46897;55.340;86.082;2022-07-30T07:25:48;9.88;;;7.03;;
61009;SDS011;46897;55.340;86.082;2022-07-30T07:28:17;10.52;;;7.10;;
61009;SDS011;46897;55.340;86.082;2022-07-30T07:30:46;9.60;;;7.25;;
61009;SDS011;46897;55.340;86.082;2022-07-30T07:33:16;8.25;;;6.55;;
61009;SDS011;46897;55.340;86.082;2022-07-30T07:35:45;9.25;;;7.22;;
61009;SDS011;46897;55.340;86.082;2022-07-30T07:38:16;8.00;;;6.57;;
61009;SDS011;46897;55.340;86.082;2022-07-30T07:40:47;7.93;;;6.50;;
61009;SDS011;46897;55.340;86.082;2022-07-30T07:43:16;7.60;;;6.72;;
61009;SDS011;46897;55.340;86.082;2022-07-30T07:45:45;7.00;;;6.30;;
61009;SDS011;46897;55.340;86.082;2022-07-30T07:48:15;8.75;;;7.25;;
61009;SDS011;46897;55.340;86.082;2022-07-30T07:50:47;11.93;;;8.27;;
61009;SDS011;46897;55.340;86.082;2022-07-30T07:53:16;10.27;;;7.50;;
61009;SDS011;46897;55.340;86.082;2022-07-30T07:55:47;9.73;;;7.18;;
61009;SDS011;46897;55.340;86.082;2022-07-30T07:58:16;9.43;;;6.93;;
61009;SDS011;46897;55.340;86.082;2022-07-30T08:00:52;9.77;;;6.53;;
61009;SDS011;46897;55.340;86.082;2022-07-30T08:03:22;8.90;;;6.97;;
61009;SDS011;46897;55.340;86.082;2022-07-30T08:05:51;13.75;;;7.65;;
61009;SDS011;46897;55.340;86.082;2022-07-30T08:08:32;11.88;;;7.53;;
61009;SDS011;46897;55.340;86.082;2022-07-30T08:11:05;11.10;;;6.72;;
61009;SDS011;46897;55.340;86.082;2022-07-30T08:13:34;8.98;;;6.80;;
61009;SDS011;46897;55.340;86.082;2022-07-30T08:16:19;9.57;;;6.43;;
61009;SDS011;46897;55.340;86.082;2022-07-30T08:18:51;11.88;;;7.53;;
61009;SDS011;46897;55.340;86.082;2022-07-30T08:21:21;11.02;;;7.13;;
61009;SDS011;46897;55.340;86.082;2022-07-30T08:23:51;12.57;;;7.72;;
61009;SDS011;46897;55.340;86.082;2022-07-30T08:26:22;10.38;;;7.13;;
61009;SDS011;46897;55.340;86.082;2022-07-30T08:28:51;11.25;;;8.10;;
61009;SDS011;46897;55.340;86.082;2022-07-30T08:31:20;10.75;;;7.90;;
61009;SDS011;46897;55.340;86.082;2022-07-30T08:33:50;11.88;;;7.13;;
61009;SDS011;46897;55.340;86.082;2022-07-30T08:36:19;10.07;;;8.05;;
61009;SDS011;46897;55.340;86.082;2022-07-30T08:38:51;8.10;;;6.25;;
61009;SDS011;46897;55.340;86.082;2022-07-30T08:41:22;10.80;;;7.88;;
61009;SDS011;46897;55.340;86.082;2022-07-30T08:43:52;9.60;;;6.38;;
61009;SDS011;46897;55.340;86.082;2022-07-30T08:46:23;9.00;;;6.78;;
61009;SDS011;46897;55.340;86.082;2022-07-30T08:48:55;7.80;;;6.80;;
61009;SDS011;46897;55.340;86.082;2022-07-30T08:51:35;9.90;;;7.22;;
61009;SDS011;46897;55.340;86.082;2022-07-30T08:54:04;8.07;;;6.93;;
61009;SDS011;46897;55.340;86.082;2022-07-30T08:56:35;10.10;;;6.53;;
61009;SDS011;46897;55.340;86.082;2022-07-30T08:59:05;7.45;;;6.50;;
61009;SDS011;46897;55.340;86.082;2022-07-30T09:01:34;8.20;;;6.20;;
61009;SDS011;46897;55.340;86.082;2022-07-30T09:04:04;9.13;;;7.03;;
61009;SDS011;46897;55.340;86.082;2022-07-30T09:06:33;10.77;;;7.57;;
61009;SDS011;46897;55.340;86.082;2022-07-30T09:09:04;9.80;;;6.50;;
61009;SDS011;46897;55.340;86.082;2022-07-30T09:11:34;10.07;;;6.70;;
61009;SDS011;46897;55.340;86.082;2022-07-30T09:14:07;11.90;;;7.68;;
61009;SDS011;46897;55.340;86.082;2022-07-30T09:16:37;9.23;;;6.85;;
61009;SDS011;46897;55.340;86.082;2022-07-30T09:19:10;16.20;;;7.40;;
61009;SDS011;46897;55.340;86.082;2022-07-30T09:21:40;12.68;;;6.95;;
61009;SDS011;46897;55.340;86.082;2022-07-30T09:24:10;17.58;;;7.82;;
61009;SDS011;46897;55.340;86.082;2022-07-30T09:26:54;21.33;;;8.75;;
61009;SDS011;46897;55.340;86.082;2022-07-30T09:29:26;46.97;;;11.50;;
61009;SDS011;46897;55.340;86.082;2022-07-30T09:31:56;47.33;;;11.15;;
61009;SDS011;46897;55.340;86.082;2022-07-30T09:34:28;26.25;;;8.98;;
61009;SDS011;46897;55.340;86.082;2022-07-30T09:36:59;12.52;;;7.30;;
61009;SDS011;46897;55.340;86.082;2022-07-30T09:39:31;10.85;;;7.32;;
61009;SDS011;46897;55.340;86.082;2022-07-30T09:42:16;12.15;;;7.15;;
61009;SDS011;46897;55.340;86.082;2022-07-30T09:44:46;8.57;;;6.70;;
61009;SDS011;46897;55.340;86.082;2022-07-30T09:47:31;16.17;;;8.70;;
61009;SDS011;46897;55.340;86.082;2022-07-30T09:50:03;12.68;;;6.50;;
61009;SDS011;46897;55.340;86.082;2022-07-30T09:52:33;10.77;;;7.53;;
61009;SDS011;46897;55.340;86.082;2022-07-30T09:55:09;25.77;;;7.82;;
61009;SDS011;46897;55.340;86.082;2022-07-30T09:57:54;18.77;;;7.15;;
61009;SDS011;46897;55.340;86.082;2022-07-30T10:00:25;11.98;;;6.30;;
61009;SDS011;46897;55.340;86.082;2022-07-30T10:02:56;16.63;;;6.90;;
61009;SDS011;46897;55.340;86.082;2022-07-30T10:05:38;13.23;;;6.97;;
61009;SDS011;46897;55.340;86.082;2022-07-30T10:08:18;8.88;;;7.00;;
61009;SDS011;46897;55.340;86.082;2022-07-30T10:10:49;11.45;;;6.82;;
61009;SDS011;46897;55.340;86.082;2022-07-30T10:13:20;10.82;;;7.63;;
61009;SDS011;46897;55.340;86.082;2022-07-30T10:15:57;12.48;;;6.80;;
61009;SDS011;46897;55.340;86.082;2022-07-30T10:18:27;15.65;;;7.22;;
61009;SDS011;46897;55.340;86.082;2022-07-30T10:21:00;10.45;;;7.00;;
61009;SDS011;46897;55.340;86.082;2022-07-30T10:23:31;10.18;;;7.15;;
61009;SDS011;46897;55.340;86.082;2022-07-30T10:26:01;11.57;;;7.30;;
61009;SDS011;46897;55.340;86.082;2022-07-30T10:28:34;8.98;;;6.57;;
61009;SDS011;46897;55.340;86.082;2022-07-30T10:31:05;9.40;;;6.63;;
61009;SDS011;46897;55.340;86.082;2022-07-30T10:33:54;10.55;;;6.30;;
61009;SDS011;46897;55.340;86.082;2022-07-30T10:36:24;13.32;;;6.90;;
61009;SDS011;46897;55.340;86.082;2022-07-30T10:38:55;18.77;;;7.20;;
61009;SDS011;46897;55.340;86.082;2022-07-30T10:41:28;12.73;;;7.47;;
61009;SDS011;46897;55.340;86.082;2022-07-30T10:44:22;12.13;;;7.07;;
61009;SDS011;46897;55.340;86.082;2022-07-30T10:47:02;15.13;;;8.15;;
61009;SDS011;46897;55.340;86.082;2022-07-30T10:49:36;17.17;;;7.57;;
61009;SDS011;46897;55.340;86.082;2022-07-30T10:52:08;15.68;;;7.63;;
61009;SDS011;46897;55.340;86.082;2022-07-30T10:54:39;11.60;;;7.55;;
61009;SDS011;46897;55.340;86.082;2022-07-30T10:57:11;12.10;;;7.28;;
61009;SDS011;46897;55.340;86.082;2022-07-30T11:00:12;9.23;;;6.72;;
61009;SDS011;46897;55.340;86.082;2022-07-30T11:06:25;9.75;;;5.82;;
61009;SDS011;46897;55.340;86.082;2022-07-30T11:08:55;10.68;;;6.82;;
61009;SDS011;46897;55.340;86.082;2022-07-30T11:17:24;14.23;;;7.90;;
61009;SDS011;46897;55.340;86.082;2022-07-30T11:20:09;11.32;;;7.32;;
61009;SDS011;46897;55.340;86.082;2022-07-30T11:22:39;21.83;;;9.15;;
61009;SDS011;46897;55.340;86.082;2022-07-30T11:31:02;19.42;;;8.10;;
61009;SDS011;46897;55.340;86.082;2022-07-30T11:33:37;33.63;;;7.80;;
61009;SDS011;46897;55.340;86.082;2022-07-30T11:36:07;40.92;;;9.63;;
61009;SDS011;46897;55.340;86.082;2022-07-30T11:38:51;19.27;;;7.25;;
61009;SDS011;46897;55.340;86.082;2022-07-30T11:41:30;58.63;;;10.30;;
61009;SDS011;46897;55.340;86.082;2022-07-30T11:46:59;16.48;;;6.90;;
61009;SDS011;46897;55.340;86.082;2022-07-30T11:49:35;22.42;;;7.70;;
61009;SDS011;46897;55.340;86.082;2022-07-30T11:52:04;28.30;;;7.83;;
61009;SDS011;46897;55.340;86.082;2022-07-30T11:54:47;42.25;;;9.73;;
61009;SDS011;46897;55.340;86.082;2022-07-30T11:57:19;23.50;;;7.95;;
61009;SDS011;46897;55.340;86.082;2022-07-30T11:59:52;23.70;;;7.07;;
61009;SDS011;46897;55.340;86.082;2022-07-30T12:02:25;13.18;;;6.38;;
61009;SDS011;46897;55.340;86.082;2022-07-30T12:04:56;61.92;;;11.35;;
61009;SDS011;46897;55.340;86.082;2022-07-30T12:07:25;101.10;;;16.00;;
61009;SDS011;46897;55.340;86.082;2022-07-30T12:12:52;9.88;;;6.47;;
61009;SDS011;46897;55.340;86.082;2022-07-30T12:15:35;8.93;;;5.70;;
61009;SDS011;46897;55.340;86.082;2022-07-30T12:18:05;9.70;;;6.57;;
61009;SDS011;46897;55.340;86.082;2022-07-30T12:20:54;11.90;;;7.30;;
61009;SDS011;46897;55.340;86.082;2022-07-30T12:23:25;11.98;;;5.53;;
61009;SDS011;46897;55.340;86.082;2022-07-30T12:25:55;11.70;;;5.93;;
61009;SDS011;46897;55.340;86.082;2022-07-30T12:28:25;10.18;;;6.40;;
61009;SDS011;46897;55.340;86.082;2022-07-30T12:30:56;8.25;;;5.57;;
61009;SDS011;46897;55.340;86.082;2022-07-30T12:33:28;12.00;;;6.75;;
61009;SDS011;46897;55.340;86.082;2022-07-30T12:36:00;9.32;;;6.10;;
61009;SDS011;46897;55.340;86.082;2022-07-30T12:38:29;11.00;;;5.80;;
61009;SDS011;46897;55.340;86.082;2022-07-30T12:41:16;9.35;;;5.50;;
61009;SDS011;46897;55.340;86.082;2022-07-30T12:43:46;9.18;;;6.30;;
61009;SDS011;46897;55.340;86.082;2022-07-30T12:46:17;9.07;;;5.88;;
61009;SDS011;46897;55.340;86.082;2022-07-30T12:48:48;10.65;;;5.55;;
61009;SDS011;46897;55.340;86.082;2022-07-30T12:51:21;12.90;;;5.53;;
61009;SDS011;46897;55.340;86.082;2022-07-30T12:53:51;11.05;;;5.80;;
61009;SDS011;46897;55.340;86.082;2022-07-30T12:56:22;12.93;;;6.38;;
61009;SDS011;46897;55.340;86.082;2022-07-30T12:58:54;10.82;;;6.03;;
61009;SDS011;46897;55.340;86.082;2022-07-30T13:04:16;10.55;;;6.28;;
61009;SDS011;46897;55.340;86.082;2022-07-30T13:09:38;14.60;;;6.43;;
61009;SDS011;46897;55.340;86.082;2022-07-30T13:12:10;15.68;;;7.25;;
61009;SDS011;46897;55.340;86.082;2022-07-30T13:14:42;12.13;;;6.53;;
61009;SDS011;46897;55.340;86.082;2022-07-30T13:17:24;12.27;;;6.60;;
61009;SDS011;46897;55.340;86.082;2022-07-30T13:20:03;10.45;;;6.45;;
61009;SDS011;46897;55.340;86.082;2022-07-30T13:22:36;11.20;;;6.40;;
61009;SDS011;46897;55.340;86.082;2022-07-30T13:25:05;11.18;;;6.40;;
61009;SDS011;46897;55.340;86.082;2022-07-30T13:27:37;13.98;;;7.20;;
61009;SDS011;46897;55.340;86.082;2022-07-30T13:30:18;11.73;;;6.20;;
61009;SDS011;46897;55.340;86.082;2022-07-30T13:32:51;9.63;;;5.88;;
61009;SDS011;46897;55.340;86.082;2022-07-30T13:35:20;11.52;;;6.93;;
61009;SDS011;46897;55.340;86.082;2022-07-30T13:37:55;9.30;;;6.95;;
61009;SDS011;46897;55.340;86.082;2022-07-30T13:40:27;8.98;;;6.43;;
61009;SDS011;46897;55.340;86.082;2022-07-30T13:42:58;13.32;;;7.40;;
61009;SDS011;46897;55.340;86.082;2022-07-30T13:45:27;11.95;;;7.40;;
61009;SDS011;46897;55.340;86.082;2022-07-30T13:47:57;12.00;;;7.40;;
61009;SDS011;46897;55.340;86.082;2022-07-30T13:50:26;10.57;;;7.80;;
61009;SDS011;46897;55.340;86.082;2022-07-30T13:52:57;9.45;;;7.10;;
61009;SDS011;46897;55.340;86.082;2022-07-30T13:55:28;13.20;;;7.07;;
61009;SDS011;46897;55.340;86.082;2022-07-30T13:57:57;13.80;;;7.35;;
61009;SDS011;46897;55.340;86.082;2022-07-30T14:00:27;12.75;;;7.43;;
61009;SDS011;46897;55.340;86.082;2022-07-30T14:02:59;10.88;;;7.90;;
61009;SDS011;46897;55.340;86.082;2022-07-30T14:05:28;11.65;;;8.15;;
61009;SDS011;46897;55.340;86.082;2022-07-30T14:08:00;12.38;;;7.88;;
61009;SDS011;46897;55.340;86.082;2022-07-30T14:10:30;12.38;;;7.97;;
61009;SDS011;46897;55.340;86.082;2022-07-30T14:13:00;15.07;;;8.50;;
61009;SDS011;46897;55.340;86.082;2022-07-30T14:15:31;12.13;;;7.80;;
61009;SDS011;46897;55.340;86.082;2022-07-30T14:18:00;11.43;;;7.43;;
61009;SDS011;46897;55.340;86.082;2022-07-30T14:20:33;13.13;;;8.43;;
61009;SDS011;46897;55.340;86.082;2022-07-30T14:23:04;12.70;;;7.82;;
61009;SDS011;46897;55.340;86.082;2022-07-30T14:25:33;13.50;;;7.95;;
61009;SDS011;46897;55.340;86.082;2022-07-30T14:28:03;13.98;;;8.23;;
61009;SDS011;46897;55.340;86.082;2022-07-30T14:30:32;14.02;;;8.07;;
61009;SDS011;46897;55.340;86.082;2022-07-30T14:33:02;22.35;;;8.98;;
61009;SDS011;46897;55.340;86.082;2022-07-30T14:35:31;11.63;;;7.88;;
61009;SDS011;46897;55.340;86.082;2022-07-30T14:38:01;12.82;;;7.85;;
61009;SDS011;46897;55.340;86.082;2022-07-30T14:40:32;11.68;;;7.78;;
61009;SDS011;46897;55.340;86.082;2022-07-30T14:43:02;16.33;;;7.28;;
61009;SDS011;46897;55.340;86.082;2022-07-30T14:45:32;13.45;;;7.25;;
61009;SDS011;46897;55.340;86.082;2022-07-30T14:48:02;14.27;;;7.60;;
61009;SDS011;46897;55.340;86.082;2022-07-30T14:50:32;12.32;;;7.47;;
61009;SDS011;46897;55.340;86.082;2022-07-30T14:53:21;15.23;;;7.43;;
61009;SDS011;46897;55.340;86.082;2022-07-30T14:55:51;14.10;;;7.88;;
61009;SDS011;46897;55.340;86.082;2022-07-30T14:58:21;12.43;;;8.30;;
61009;SDS011;46897;55.340;86.082;2022-07-30T15:00:50;13.68;;;7.68;;
61009;SDS011;46897;55.340;86.082;2022-07-30T15:03:20;17.35;;;8.15;;
61009;SDS011;46897;55.340;86.082;2022-07-30T15:05:51;12.82;;;7.68;;
61009;SDS011;46897;55.340;86.082;2022-07-30T15:08:20;14.13;;;8.00;;
61009;SDS011;46897;55.340;86.082;2022-07-30T15:10:50;14.45;;;7.97;;
61009;SDS011;46897;55.340;86.082;2022-07-30T15:13:26;17.40;;;8.57;;
61009;SDS011;46897;55.340;86.082;2022-07-30T15:15:57;14.68;;;9.23;;
61009;SDS011;46897;55.340;86.082;2022-07-30T15:18:26;15.43;;;8.43;;
61009;SDS011;46897;55.340;86.082;2022-07-30T15:20:55;37.35;;;18.88;;
61009;SDS011;46897;55.340;86.082;2022-07-30T15:23:25;13.80;;;8.40;;